Time;durP1;ratioP1;P1;durP2;ratioP2;P2;SDS_P1;SDS_P2;PMS_P1;PMS_P2;Temp;Humidity;BMP_temperature;BMP_pressure;BME280_temperature;BME280_humidity;BME280_pressure;Samples;Min_cycle;Max_cycle;Signal;HPM_P1;HPM_P2
2023/02/28 00:01:15;;;;;;;5.20;3.67;;;;;;;-145.69;100.00;52610.75;5117228;28;20578;-84
2023/02/28 00:03:42;;;;;;;8.30;3.53;;;;;;;-145.69;100.00;52590.94;5117281;28;20205;-84
2023/02/28 00:06:09;;;;;;;5.20;3.30;;;;;;;-145.69;100.00;52604.81;5116759;28;20197;-84
2023/02/28 00:08:36;;;;;;;6.43;3.47;;;;;;;-145.69;100.00;52592.91;5116366;28;20224;-85
2023/02/28 00:11:03;;;;;;;6.57;3.43;;;;;;;-145.69;100.00;52575.09;5117005;28;20209;-85
2023/02/28 00:13:30;;;;;;;6.77;3.40;;;;;;;-145.69;100.00;52565.19;5116686;28;20205;-85
2023/02/28 00:16:02;;;;;;;7.37;3.80;;;;;;;-145.69;100.00;52590.94;5117017;28;20248;-85
2023/02/28 00:18:29;;;;;;;5.70;3.07;;;;;;;-145.69;100.00;52588.97;5116794;28;20656;-84
2023/02/28 00:20:55;;;;;;;5.50;3.20;;;;;;;-145.69;100.00;52618.66;5116873;28;20201;-85
2023/02/28 00:23:22;;;;;;;8.63;3.80;;;;;;;-145.69;100.00;52575.09;5116580;28;20205;-85
2023/02/28 00:25:48;;;;;;;6.33;3.63;;;;;;;-145.69;100.00;52571.13;5116782;28;20585;-84
2023/02/28 00:28:15;;;;;;;6.60;4.17;;;;;;;-145.69;100.00;52569.16;5116200;28;20225;-84
2023/02/28 00:30:41;;;;;;;5.70;3.33;;;;;;;-145.69;100.00;52586.97;5116579;28;20193;-85
2023/02/28 00:33:09;;;;;;;6.20;3.77;;;;;;;-145.69;100.00;52602.81;5116670;28;20197;-85
2023/02/28 00:35:35;;;;;;;6.43;3.63;;;;;;;-145.69;100.00;52594.91;5116610;28;20209;-85
2023/02/28 00:38:02;;;;;;;8.60;3.57;;;;;;;-145.69;100.00;52543.41;5116319;28;20204;-84
2023/02/28 00:40:29;;;;;;;6.00;3.37;;;;;;;-145.69;100.00;52600.84;5115957;28;20221;-85
2023/02/28 00:42:55;;;;;;;7.43;3.83;;;;;;;-145.69;100.00;52545.38;5116050;28;20198;-84
2023/02/28 00:45:22;;;;;;;6.23;3.50;;;;;;;-145.69;100.00;52561.22;5116228;28;20194;-84
2023/02/28 00:47:49;;;;;;;5.80;3.53;;;;;;;-145.69;100.00;52571.13;5115764;28;20817;-84
2023/02/28 00:50:17;;;;;;;6.20;3.43;;;;;;;-145.69;100.00;52606.78;5116323;28;20197;-85
2023/02/28 00:52:45;;;;;;;8.87;3.83;;;;;;;-145.69;100.00;52585.00;5097702;28;20236;-84
2023/02/28 00:55:11;;;;;;;7.77;3.90;;;;;;;-145.69;100.00;52571.13;5115865;28;20197;-84
2023/02/28 00:57:37;;;;;;;6.90;3.67;;;;;;;-145.69;100.00;52555.28;5115631;28;20193;-85
2023/02/28 01:00:06;;;;;;;5.37;3.50;;;;;;;-145.69;100.00;52551.31;5116107;28;20209;-84
2023/02/28 01:02:32;;;;;;;6.80;3.43;;;;;;;-145.69;100.00;52606.78;5115884;28;20690;-84
2023/02/28 01:04:59;;;;;;;6.93;3.60;;;;;;;-145.69;100.00;52577.06;5115725;28;20194;-84
2023/02/28 01:07:26;;;;;;;8.37;3.83;;;;;;;-145.69;100.00;52598.84;5115853;28;20220;-85
2023/02/28 01:09:53;;;;;;;6.47;3.80;;;;;;;-145.69;100.00;52551.31;5115439;28;20684;-84
2023/02/28 01:12:20;;;;;;;8.10;4.17;;;;;;;-145.69;100.00;52586.97;5115720;28;20197;-85
2023/02/28 01:14:46;;;;;;;6.60;3.90;;;;;;;-145.69;100.00;52569.16;5115803;28;20209;-85
2023/02/28 01:17:13;;;;;;;6.63;3.57;;;;;;;-145.69;100.00;52581.03;5115641;28;20209;-85
2023/02/28 01:19:39;;;;;;;7.30;3.73;;;;;;;-145.69;100.00;52575.09;5115365;28;20197;-84
2023/02/28 01:22:07;;;;;;;4.97;3.60;;;;;;;-145.69;100.00;52608.75;5114602;28;20201;-84
2023/02/28 01:24:34;;;;;;;9.53;3.77;;;;;;;-145.69;100.00;52543.41;5115222;28;20205;-85
2023/02/28 01:27:01;;;;;;;8.63;3.80;;;;;;;-145.69;100.00;52600.84;5115036;28;20229;-85
2023/02/28 01:29:28;;;;;;;8.00;4.00;;;;;;;-145.69;100.00;52600.84;5115452;28;20201;-85
2023/02/28 01:31:54;;;;;;;6.10;3.40;;;;;;;-145.69;100.00;52575.09;5097596;28;20244;-85
2023/02/28 01:34:21;;;;;;;7.47;4.00;;;;;;;-145.69;100.00;52602.81;5097758;28;20236;-85
2023/02/28 01:36:47;;;;;;;7.20;3.57;;;;;;;-145.69;100.00;52539.44;5115701;28;20202;-86
2023/02/28 01:39:14;;;;;;;7.10;3.83;;;;;;;-145.69;100.00;52571.13;5115798;28;20198;-83
2023/02/28 01:41:42;;;;;;;9.30;4.03;;;;;;;-145.69;100.00;52547.38;5115066;28;20841;-85
2023/02/28 01:44:42;;;;;;;7.87;4.03;;;;;;;-145.69;100.00;52559.25;5115333;28;20224;-85
2023/02/28 01:47:09;;;;;;;8.83;3.70;;;;;;;-145.69;100.00;52594.91;5114914;28;20224;-86
2023/02/28 01:49:35;;;;;;;7.23;3.80;;;;;;;-145.69;100.00;52579.06;5097510;28;20198;-86
2023/02/28 01:52:02;;;;;;;9.10;4.17;;;;;;;-145.69;100.00;52571.13;5115122;28;20198;-85
2023/02/28 01:54:32;;;;;;;7.47;4.20;;;;;;;-145.69;100.00;52594.91;5114965;28;20197;-86
2023/02/28 01:57:04;;;;;;;5.87;4.17;;;;;;;-145.69;100.00;52594.91;5114908;28;20201;-85
2023/02/28 01:59:37;;;;;;;6.97;4.07;;;;;;;-145.69;100.00;52604.81;5094876;28;20206;-85
2023/02/28 02:02:04;;;;;;;8.20;3.97;;;;;;;-145.69;100.00;52569.16;5103715;28;20219;-85
2023/02/28 02:04:36;;;;;;;6.17;4.00;;;;;;;-145.69;100.00;52581.03;5115106;28;20207;-85
2023/02/28 02:07:04;;;;;;;6.37;4.20;;;;;;;-145.69;100.00;52594.91;5104981;28;20205;-85
2023/02/28 02:09:31;;;;;;;8.70;4.23;;;;;;;-145.69;100.00;52573.13;5094450;28;20210;-85
2023/02/28 02:11:58;;;;;;;9.30;4.00;;;;;;;-145.69;100.00;52583.00;5110225;28;20714;-85
2023/02/28 02:14:51;;;;;;;9.07;4.07;;;;;;;-145.69;100.00;52567.16;5094348;28;20703;-85
2023/02/28 02:17:27;;;;;;;4.90;3.67;;;;;;;-145.69;100.00;52586.97;5100028;28;20666;-85
2023/02/28 02:20:23;;;;;;;8.57;3.97;;;;;;;-145.69;100.00;52616.69;5114577;28;20201;-86
2023/02/28 02:23:19;;;;;;;7.20;4.20;;;;;;;-145.69;100.00;52590.94;5114443;28;20208;-85
2023/02/28 02:25:54;;;;;;;6.07;4.00;;;;;;;-145.69;100.00;52594.91;5114266;28;20200;-85
2023/02/28 02:28:57;;;;;;;8.30;4.20;;;;;;;-145.69;100.00;52590.94;5115047;28;20228;-86
2023/02/28 02:31:40;;;;;;;7.53;4.43;;;;;;;-145.69;100.00;52563.22;5096196;28;20893;-86
2023/02/28 02:34:38;;;;;;;8.47;4.07;;;;;;;-145.69;100.00;52551.31;5114830;28;20601;-85
2023/02/28 02:37:16;;;;;;;6.43;4.37;;;;;;;-145.69;100.00;52573.13;5114075;28;20200;-86
2023/02/28 02:39:51;;;;;;;7.53;4.40;;;;;;;-145.69;100.00;52586.97;5114493;28;20251;-85
2023/02/28 02:42:25;;;;;;;8.80;4.73;;;;;;;-145.69;100.00;52571.13;5114450;28;20197;-84
2023/02/28 02:44:58;;;;;;;6.43;3.73;;;;;;;-145.69;100.00;52606.78;5114311;28;20229;-85
2023/02/28 02:47:29;;;;;;;9.03;4.17;;;;;;;-145.69;100.00;52638.47;5113974;28;20217;-85
2023/02/28 02:50:00;;;;;;;9.50;3.93;;;;;;;-145.69;100.00;52610.75;5114592;28;20556;-85
2023/02/28 02:52:33;;;;;;;7.33;4.30;;;;;;;-145.69;100.00;52586.97;5114139;28;20224;-85
2023/02/28 02:55:03;;;;;;;8.77;4.20;;;;;;;-145.69;100.00;52586.97;5114174;28;20667;-85
2023/02/28 02:57:35;;;;;;;8.83;4.33;;;;;;;-145.69;100.00;52600.84;5114330;28;20197;-85
2023/02/28 03:00:04;;;;;;;7.60;4.10;;;;;;;-145.69;100.00;52559.25;5114096;28;20212;-85
2023/02/28 03:02:34;;;;;;;7.07;3.70;;;;;;;-145.69;100.00;52575.09;5114633;28;20204;-85
2023/02/28 03:05:03;;;;;;;7.30;4.53;;;;;;;-145.69;100.00;52573.13;5114521;28;20225;-86
2023/02/28 03:07:31;;;;;;;6.87;3.60;;;;;;;-145.69;100.00;52586.97;5096661;28;20221;-86
2023/02/28 03:09:58;;;;;;;7.53;4.07;;;;;;;-145.69;100.00;52573.13;5114194;28;20694;-86
2023/02/28 03:12:35;;;;;;;7.33;4.27;;;;;;;-145.69;100.00;52583.00;5114832;28;20201;-85
2023/02/28 03:15:10;;;;;;;9.33;4.37;;;;;;;-145.69;100.00;52610.75;5114200;28;20659;-85
2023/02/28 03:17:49;;;;;;;8.00;4.60;;;;;;;-145.69;100.00;52545.38;5113971;28;20201;-84
2023/02/28 03:20:24;;;;;;;7.67;3.90;;;;;;;-145.69;100.00;52598.84;5114098;28;20524;-85
2023/02/28 03:23:01;;;;;;;10.07;4.20;;;;;;;-145.69;100.00;52598.84;5113823;28;20201;-86
2023/02/28 03:25:36;;;;;;;8.27;4.47;;;;;;;-145.69;100.00;52577.06;5114375;28;20558;-85
2023/02/28 03:28:10;;;;;;;6.83;3.97;;;;;;;-145.69;100.00;52612.72;5114041;28;20563;-84
2023/02/28 03:30:42;;;;;;;8.80;4.20;;;;;;;-145.69;100.00;52612.72;5113644;28;20209;-85
2023/02/28 03:33:14;;;;;;;7.27;3.97;;;;;;;-145.69;100.00;52581.03;5114002;28;20197;-85
2023/02/28 03:35:44;;;;;;;8.93;4.57;;;;;;;-145.69;100.00;52618.66;5113744;28;20205;-85
2023/02/28 03:38:18;;;;;;;8.47;4.50;;;;;;;-145.69;100.00;52577.06;5113831;28;20236;-85
2023/02/28 03:40:49;;;;;;;6.93;4.17;;;;;;;-145.69;100.00;52563.22;5095506;28;20271;-85
2023/02/28 03:43:22;;;;;;;8.40;4.40;;;;;;;-145.69;100.00;52571.13;5113634;28;20201;-85
2023/02/28 03:45:52;;;;;;;6.80;4.13;;;;;;;-145.69;100.00;52586.97;5117478;28;20201;-84
2023/02/28 03:48:23;;;;;;;9.63;4.73;;;;;;;-145.69;100.00;52620.66;5117374;28;20221;-84
2023/02/28 03:50:52;;;;;;;9.40;4.27;;;;;;;-145.69;100.00;52581.03;5117465;28;20250;-84
2023/02/28 03:53:25;;;;;;;9.40;3.57;;;;;;;-145.69;100.00;52575.09;5117290;28;20227;-84
2023/02/28 03:55:57;;;;;;;8.60;5.13;;;;;;;-145.69;100.00;52594.91;5117419;28;20201;-85
2023/02/28 03:58:31;;;;;;;8.27;4.53;;;;;;;-145.69;100.00;52583.00;5117268;28;20205;-84
2023/02/28 04:01:07;;;;;;;7.73;3.90;;;;;;;-145.69;100.00;52598.84;5099032;28;20224;-84
2023/02/28 04:03:35;;;;;;;7.17;4.13;;;;;;;-145.69;100.00;52626.59;5117079;28;20208;-84
2023/02/28 04:06:01;;;;;;;9.00;4.60;;;;;;;-145.69;100.00;52600.84;5116625;28;20209;-84
2023/02/28 04:08:29;;;;;;;8.70;4.67;;;;;;;-145.69;100.00;52602.81;5116728;28;20217;-83
2023/02/28 04:11:01;;;;;;;8.87;4.57;;;;;;;-145.69;100.00;52596.88;5116853;28;20205;-84
2023/02/28 04:13:27;;;;;;;8.00;4.50;;;;;;;-145.69;100.00;52604.81;5116810;28;20197;-85
2023/02/28 04:15:53;;;;;;;7.67;4.60;;;;;;;-145.69;100.00;52592.91;5116879;28;20201;-84
2023/02/28 04:18:20;;;;;;;9.23;4.80;;;;;;;-145.69;100.00;52563.22;5116684;28;20194;-83
2023/02/28 04:20:46;;;;;;;8.63;4.67;;;;;;;-145.69;100.00;52600.84;5116734;28;20193;-84
2023/02/28 04:23:13;;;;;;;8.03;4.67;;;;;;;-145.69;100.00;52620.66;5116825;28;20201;-85
2023/02/28 04:25:41;;;;;;;10.60;5.60;;;;;;;-145.69;100.00;52602.81;5116510;28;20205;-85
2023/02/28 04:28:07;;;;;;;11.77;4.80;;;;;;;-145.69;100.00;52575.09;5116472;28;20636;-84
2023/02/28 04:30:34;;;;;;;10.17;5.60;;;;;;;-145.69;100.00;52594.91;5116493;28;20197;-84
2023/02/28 04:33:01;;;;;;;13.07;5.70;;;;;;;-145.69;100.00;52616.69;5116919;28;20209;-85
2023/02/28 04:35:28;;;;;;;9.27;5.00;;;;;;;-145.69;100.00;52575.09;5116592;28;20201;-84
2023/02/28 04:37:54;;;;;;;10.50;5.40;;;;;;;-145.69;100.00;52585.00;5116092;28;20652;-83
2023/02/28 04:40:21;;;;;;;13.03;5.07;;;;;;;-145.69;100.00;52551.31;5115878;28;20233;-84
2023/02/28 04:42:49;;;;;;;11.00;5.33;;;;;;;-145.69;100.00;52616.69;5116271;28;20194;-83
2023/02/28 04:45:17;;;;;;;11.20;5.40;;;;;;;-145.69;100.00;52632.53;5116086;28;20197;-84
2023/02/28 04:47:43;;;;;;;10.13;5.30;;;;;;;-145.69;100.00;52594.91;5115997;28;20258;-84
2023/02/28 04:50:10;;;;;;;13.03;5.57;;;;;;;-145.69;100.00;52567.16;5116371;28;20201;-85
2023/02/28 04:52:37;;;;;;;10.77;5.43;;;;;;;-145.69;100.00;52610.75;5116226;28;20209;-85
2023/02/28 04:55:05;;;;;;;11.30;5.60;;;;;;;-145.69;100.00;52577.06;5115847;28;20202;-84
2023/02/28 04:57:31;;;;;;;10.47;5.67;;;;;;;-145.69;100.00;52579.06;5116501;28;20237;-84
2023/02/28 04:59:59;;;;;;;9.40;5.23;;;;;;;-145.69;100.00;52588.97;5116278;28;20206;-84
2023/02/28 05:02:26;;;;;;;12.57;5.47;;;;;;;-145.69;100.00;52598.84;5115856;28;20190;-84
2023/02/28 05:04:52;;;;;;;10.07;5.67;;;;;;;-145.69;100.00;52571.13;5115798;28;20212;-84
2023/02/28 05:07:18;;;;;;;10.07;5.47;;;;;;;-145.69;100.00;52590.94;5115607;28;20209;-83
2023/02/28 05:09:45;;;;;;;10.30;5.47;;;;;;;-145.69;100.00;52555.28;5115705;28;20232;-84
2023/02/28 05:12:11;;;;;;;10.20;5.13;;;;;;;-145.69;100.00;52573.13;5115756;28;20205;-83
2023/02/28 05:14:38;;;;;;;10.63;5.80;;;;;;;-145.69;100.00;52588.97;5115494;28;20201;-84
2023/02/28 05:17:06;;;;;;;8.43;5.23;;;;;;;-145.69;100.00;52598.84;5115665;28;20194;-84
2023/02/28 05:19:32;;;;;;;12.77;6.00;;;;;;;-145.69;100.00;52598.84;5115220;28;20205;-83
2023/02/28 05:21:58;;;;;;;11.03;5.33;;;;;;;-145.69;100.00;52604.81;5115223;28;20208;-84
2023/02/28 05:24:25;;;;;;;9.47;5.43;;;;;;;-145.69;100.00;52604.81;5115426;28;20193;-83
2023/02/28 05:26:54;;;;;;;11.87;6.00;;;;;;;-145.69;100.00;52614.72;5114973;28;20216;-83
2023/02/28 05:29:21;;;;;;;14.33;6.57;;;;;;;-145.69;100.00;52614.72;5114919;28;20231;-84
2023/02/28 05:31:47;;;;;;;13.63;6.13;;;;;;;-145.69;100.00;52600.84;5114890;28;20193;-82
2023/02/28 05:34:15;;;;;;;12.13;6.07;;;;;;;-145.69;100.00;52600.84;5115084;28;20201;-83
2023/02/28 05:36:42;;;;;;;10.80;5.20;;;;;;;-145.69;100.00;52571.13;5115215;28;20208;-84
2023/02/28 05:39:12;;;;;;;9.43;5.60;;;;;;;-145.69;100.00;52590.94;5115508;28;20202;-85
2023/02/28 05:41:40;;;;;;;14.13;5.80;;;;;;;-145.69;100.00;52565.19;5115263;28;20233;-84
2023/02/28 05:44:06;;;;;;;12.33;6.10;;;;;;;-145.69;100.00;52606.78;5115298;28;20208;-84
2023/02/28 05:46:33;;;;;;;13.63;6.93;;;;;;;-145.69;100.00;52598.84;5115127;28;20205;-84
2023/02/28 05:49:00;;;;;;;10.30;5.63;;;;;;;-145.69;100.00;52610.75;5114883;28;20228;-84
2023/02/28 05:51:28;;;;;;;12.60;5.93;;;;;;;-145.69;100.00;52606.78;5114922;28;20201;-84
2023/02/28 05:53:55;;;;;;;11.77;6.13;;;;;;;-145.69;100.00;52577.06;5114635;28;20204;-83
2023/02/28 05:56:21;;;;;;;13.37;6.37;;;;;;;-145.69;100.00;52626.59;5114431;28;20228;-82
2023/02/28 05:58:48;;;;;;;14.03;6.50;;;;;;;-145.69;100.00;52555.28;5114453;28;20201;-84
2023/02/28 06:01:31;;;;;;;18.60;7.73;;;;;;;-145.69;100.00;52598.84;5114654;28;20209;-83
2023/02/28 06:03:59;;;;;;;11.30;6.50;;;;;;;-145.69;100.00;52579.06;5114743;28;20201;-83
2023/02/28 06:06:25;;;;;;;10.90;6.17;;;;;;;-145.69;100.00;52628.56;5108341;28;20197;-84
2023/02/28 06:08:53;;;;;;;14.77;7.10;;;;;;;-145.69;100.00;52579.06;5094192;28;20252;-83
2023/02/28 06:11:20;;;;;;;16.60;6.87;;;;;;;-145.69;100.00;52581.03;5094250;28;20206;-84
2023/02/28 06:13:47;;;;;;;18.30;7.10;;;;;;;-145.69;100.00;52598.84;5094231;28;20230;-84
2023/02/28 06:16:13;;;;;;;14.57;6.67;;;;;;;-145.69;100.00;52610.75;5110299;28;20194;-84
2023/02/28 06:18:40;;;;;;;13.27;6.63;;;;;;;-145.69;100.00;52569.16;5114277;28;20200;-84
2023/02/28 06:21:06;;;;;;;12.13;6.20;;;;;;;-145.69;100.00;52569.16;5114404;28;20194;-84
2023/02/28 06:23:33;;;;;;;15.93;7.10;;;;;;;-145.69;100.00;52579.06;5114288;28;20193;-83
2023/02/28 06:26:01;;;;;;;13.87;6.77;;;;;;;-145.69;100.00;52583.00;5114428;28;20200;-84
2023/02/28 06:28:28;;;;;;;15.20;7.30;;;;;;;-145.69;100.00;52575.09;5114369;28;20209;-83
2023/02/28 06:30:54;;;;;;;14.80;6.97;;;;;;;-145.69;100.00;52590.94;5114669;28;20189;-83
2023/02/28 06:33:21;;;;;;;14.73;7.40;;;;;;;-145.69;100.00;52575.09;5114139;28;20197;-83
2023/02/28 06:35:48;;;;;;;14.30;7.00;;;;;;;-145.69;100.00;52628.56;5113938;28;20197;-83
2023/02/28 06:38:15;;;;;;;15.17;7.17;;;;;;;-145.69;100.00;52602.81;5113965;28;20235;-83
2023/02/28 06:40:41;;;;;;;11.00;6.53;;;;;;;-145.69;100.00;52567.16;5113718;28;20221;-83
2023/02/28 06:43:13;;;;;;;17.47;6.90;;;;;;;-145.69;100.00;52590.94;5113899;28;20201;-82
2023/02/28 06:45:42;;;;;;;17.63;7.43;;;;;;;-145.69;100.00;52581.03;5113758;28;20660;-83
2023/02/28 06:48:10;;;;;;;14.33;7.60;;;;;;;-145.69;100.00;52583.00;5114208;28;20197;-82
2023/02/28 06:50:36;;;;;;;16.23;9.20;;;;;;;-145.69;100.00;52606.78;5112601;28;20446;-83
2023/02/28 06:53:03;;;;;;;15.90;8.27;;;;;;;-145.69;100.00;52585.00;5114046;28;20224;-83
2023/02/28 06:55:29;;;;;;;14.90;7.67;;;;;;;-145.69;100.00;52583.00;5113654;28;20196;-83
2023/02/28 06:57:56;;;;;;;15.90;7.47;;;;;;;-145.69;100.00;52586.97;5113255;28;20216;-83
2023/02/28 07:00:24;;;;;;;14.87;7.73;;;;;;;-145.69;100.00;52598.84;5113153;28;20208;-83
2023/02/28 07:02:51;;;;;;;13.20;6.63;;;;;;;-145.69;100.00;52575.09;5114295;28;20208;-83
2023/02/28 07:05:17;;;;;;;15.83;7.77;;;;;;;-145.69;100.00;52583.00;5113930;28;20655;-83
2023/02/28 07:07:46;;;;;;;16.30;7.37;;;;;;;-145.69;100.00;52610.75;5113675;28;20205;-83
2023/02/28 07:10:16;;;;;;;17.13;7.60;;;;;;;-145.69;100.00;52614.72;5095776;28;20225;-84
2023/02/28 07:12:43;;;;;;;15.83;7.53;;;;;;;-145.69;100.00;52555.28;5113471;28;20652;-82
2023/02/28 07:15:10;;;;;;;16.23;8.03;;;;;;;-145.69;100.00;52596.88;5113549;28;20204;-83
2023/02/28 07:17:38;;;;;;;15.83;7.47;;;;;;;-145.69;100.00;52579.06;5113867;28;20198;-83
2023/02/28 07:20:05;;;;;;;15.37;7.73;;;;;;;-145.69;100.00;52608.75;5117295;28;20216;-83
2023/02/28 07:22:32;;;;;;;13.23;7.20;;;;;;;-145.69;100.00;52618.66;5117622;28;20209;-82
2023/02/28 07:24:58;;;;;;;15.70;7.70;;;;;;;-145.69;100.00;52610.75;5117089;28;20205;-82
2023/02/28 07:27:25;;;;;;;14.97;7.30;;;;;;;-145.69;100.00;52590.94;5117368;28;20220;-82
2023/02/28 07:29:52;;;;;;;15.37;8.13;;;;;;;-145.69;100.00;52632.53;5117793;28;20255;-84
2023/02/28 07:32:19;;;;;;;14.73;7.10;;;;;;;-145.69;100.00;52571.13;5117952;28;20201;-85
2023/02/28 07:34:47;;;;;;;13.67;7.20;;;;;;;-145.69;100.00;52602.81;5117762;28;20240;-85
2023/02/28 07:37:13;;;;;;;16.27;8.17;;;;;;;-145.69;100.00;52590.94;5117646;28;20217;-84
2023/02/28 07:39:41;;;;;;;18.95;10.35;;;;;;;-145.69;100.00;52606.78;5098268;28;20500;-83
2023/02/28 07:42:10;;;;;;;15.03;8.30;;;;;;;-145.69;100.00;52571.13;5117841;28;20262;-84
2023/02/28 07:44:40;;;;;;;16.63;8.10;;;;;;;-145.69;100.00;52632.53;5117291;28;20198;-83
2023/02/28 07:47:06;;;;;;;16.03;8.10;;;;;;;-145.69;100.00;52598.84;5117408;28;20204;-82
2023/02/28 07:49:33;;;;;;;15.93;8.00;;;;;;;-145.69;100.00;52622.63;5116565;28;20223;-82
2023/02/28 07:52:01;;;;;;;16.57;7.63;;;;;;;-145.69;100.00;52581.03;5116972;28;20208;-83
2023/02/28 07:54:27;;;;;;;12.60;7.20;;;;;;;-145.69;100.00;52606.78;5096719;28;20198;-83
2023/02/28 07:56:54;;;;;;;18.53;8.37;;;;;;;-145.69;100.00;52573.13;5096745;28;20198;-84
2023/02/28 07:59:20;;;;;;;15.77;7.33;;;;;;;-145.69;100.00;52600.84;5112227;28;20190;-82
2023/02/28 08:01:49;;;;;;;15.87;7.80;;;;;;;-145.69;100.00;52594.91;5116517;28;20189;-83
2023/02/28 08:04:15;;;;;;;16.40;7.93;;;;;;;-145.69;100.00;52577.06;5116830;28;20292;-82
2023/02/28 08:06:42;;;;;;;18.53;7.87;;;;;;;-145.69;100.00;52612.72;5116867;28;20193;-83
2023/02/28 08:09:10;;;;;;;16.47;8.03;;;;;;;-145.69;100.00;52583.00;5116374;28;20303;-82
2023/02/28 08:11:37;;;;;;;20.40;8.60;;;;;;;-145.69;100.00;52573.13;5116794;28;20284;-83
2023/02/28 08:14:03;;;;;;;18.97;8.13;;;;;;;-145.69;100.00;52604.81;5116375;28;20696;-82
2023/02/28 08:16:30;;;;;;;15.80;7.77;;;;;;;-145.69;100.00;52579.06;5116495;28;20209;-83
2023/02/28 08:18:56;;;;;;;13.33;7.90;;;;;;;-145.69;100.00;52569.16;5116342;28;20208;-83
2023/02/28 08:21:23;;;;;;;19.43;7.93;;;;;;;-145.69;100.00;52606.78;5116557;28;20640;-83
2023/02/28 08:23:50;;;;;;;14.90;7.57;;;;;;;-145.69;100.00;52583.00;5116654;28;20198;-83
2023/02/28 08:26:19;;;;;;;15.13;6.80;;;;;;;-145.69;100.00;52579.06;5116210;28;20201;-83
2023/02/28 08:28:45;;;;;;;14.30;7.37;;;;;;;-145.69;100.00;52581.03;5116526;28;20201;-83
2023/02/28 08:31:14;;;;;;;18.33;7.90;;;;;;;-145.69;100.00;52602.81;5115536;28;20579;-83
2023/02/28 08:33:42;;;;;;;16.53;7.60;;;;;;;-145.69;100.00;52577.06;5115824;28;20209;-82
2023/02/28 08:36:10;;;;;;;16.20;8.17;;;;;;;-145.69;100.00;52569.16;5116344;28;20544;-83
2023/02/28 08:38:36;;;;;;;15.43;7.70;;;;;;;-145.69;100.00;52590.94;5116085;28;20206;-83
2023/02/28 08:41:07;;;;;;;17.57;8.00;;;;;;;-145.69;100.00;52590.94;5116126;28;20236;-83
2023/02/28 08:43:35;;;;;;;12.73;6.90;;;;;;;-145.69;100.00;52598.84;5116157;28;20209;-84
2023/02/28 08:46:02;;;;;;;14.83;8.00;;;;;;;-145.69;100.00;52610.75;5116051;28;20225;-83
2023/02/28 08:48:30;;;;;;;18.30;8.10;;;;;;;-145.69;100.00;52523.59;5116100;28;20201;-83
2023/02/28 08:50:57;;;;;;;15.20;7.80;;;;;;;-145.69;100.00;52575.09;5115914;28;20232;-83
2023/02/28 08:53:24;;;;;;;14.83;8.57;;;;;;;-145.69;100.00;52571.13;5115875;28;20201;-83
2023/02/28 08:55:57;;;;;;;16.07;7.50;;;;;;;-145.69;100.00;52575.09;5116046;28;20202;-83
2023/02/28 08:58:24;;;;;;;17.03;7.90;;;;;;;-145.69;100.00;52581.03;5115929;28;20208;-85
2023/02/28 09:00:52;;;;;;;14.47;7.63;;;;;;;-145.69;100.00;52583.00;5117271;28;20205;-85
2023/02/28 09:03:19;;;;;;;15.13;7.90;;;;;;;-145.69;100.00;52579.06;5117613;28;20193;-84
2023/02/28 09:05:53;;;;;;;14.37;7.97;;;;;;;-145.69;100.00;52583.00;5117452;28;20197;-85
2023/02/28 09:08:19;;;;;;;16.17;8.53;;;;;;;-145.69;100.00;52600.84;5120640;28;20201;-84
2023/02/28 09:10:46;;;;;;;14.60;8.20;;;;;;;-145.69;100.00;52590.94;5120094;28;20228;-84
2023/02/28 09:13:12;;;;;;;14.57;7.57;;;;;;;-145.69;100.00;52618.66;5117835;28;20205;-84
2023/02/28 09:15:38;;;;;;;17.97;8.13;;;;;;;-145.69;100.00;52557.28;5117191;28;20205;-84
2023/02/28 09:18:06;;;;;;;18.53;8.07;;;;;;;-145.69;100.00;52616.69;5116419;28;20643;-84
2023/02/28 09:20:33;;;;;;;14.67;8.43;;;;;;;-145.69;100.00;52561.22;5115841;28;20197;-81
2023/02/28 09:23:00;;;;;;;19.90;8.90;;;;;;;-145.69;100.00;52581.03;5115357;28;20198;-83
2023/02/28 09:25:26;;;;;;;17.27;8.30;;;;;;;-145.69;100.00;52585.00;5115291;28;20655;-83
2023/02/28 09:27:53;;;;;;;17.90;8.27;;;;;;;-145.69;100.00;52598.84;5116148;28;20201;-83
2023/02/28 09:30:19;;;;;;;15.73;7.80;;;;;;;-145.69;100.00;52579.06;5115187;28;20224;-84
2023/02/28 09:32:51;;;;;;;23.33;8.07;;;;;;;-145.69;100.00;52614.72;5115030;28;20209;-83
2023/02/28 09:35:20;;;;;;;13.33;7.07;;;;;;;-145.69;100.00;52598.84;5114426;28;20189;-83
2023/02/28 09:37:47;;;;;;;17.90;8.47;;;;;;;-145.69;100.00;52583.00;5115054;28;20201;-85
2023/02/28 09:40:17;;;;;;;18.20;8.03;;;;;;;-145.69;100.00;52571.13;5116993;28;20230;-85
2023/02/28 09:42:46;;;;;;;15.63;7.93;;;;;;;-145.69;100.00;52610.75;5116336;28;20292;-84
2023/02/28 09:45:25;;;;;;;13.43;7.33;;;;;;;-145.69;100.00;52586.97;5118010;28;20193;-84
2023/02/28 09:47:55;;;;;;;19.93;8.37;;;;;;;-145.69;100.00;52583.00;5116635;28;20211;-84
2023/02/28 09:50:32;;;;;;;15.17;8.03;;;;;;;-145.69;100.00;52575.09;5117396;28;20221;-84
2023/02/28 09:53:00;;;;;;;14.30;7.97;;;;;;;-145.69;100.00;52590.94;5117061;28;20555;-85
2023/02/28 09:55:30;;;;;;;16.83;8.77;;;;;;;-145.69;100.00;52598.84;5116133;28;20330;-87
2023/02/28 09:57:59;;;;;;;14.13;7.40;;;;;;;-145.69;100.00;52579.06;5116337;28;20659;-84
2023/02/28 10:00:32;;;;;;;19.03;8.23;;;;;;;-145.69;100.00;52563.22;5115687;28;20261;-85
2023/02/28 10:03:15;;;;;;;13.97;7.57;;;;;;;-145.69;100.00;52563.22;5114526;28;20193;-85
2023/02/28 10:05:53;;;;;;;15.43;8.30;;;;;;;-145.69;100.00;52569.16;5115174;28;20193;-83
2023/02/28 10:08:25;;;;;;;13.23;7.67;;;;;;;-145.69;100.00;52571.13;5114711;28;20194;-83
2023/02/28 10:10:56;;;;;;;14.57;7.73;;;;;;;-145.69;100.00;52579.06;5113955;28;20244;-83
2023/02/28 10:13:27;;;;;;;15.97;8.20;;;;;;;-145.69;100.00;52583.00;5113832;28;20204;-81
2023/02/28 10:15:59;;;;;;;17.27;7.53;;;;;;;-145.69;100.00;52592.91;5114182;28;20201;-81
2023/02/28 10:18:31;;;;;;;13.23;7.43;;;;;;;-145.69;100.00;52579.06;5115058;28;20593;-84
2023/02/28 10:21:00;;;;;;;14.73;7.53;;;;;;;-145.69;100.00;52541.44;5114955;28;20193;-82
2023/02/28 10:23:32;;;;;;;14.40;7.80;;;;;;;-145.69;100.00;52571.13;5113840;28;20193;-83
2023/02/28 10:26:02;;;;;;;18.43;8.93;;;;;;;-145.69;100.00;52575.09;5113910;28;20201;-80
2023/02/28 10:28:30;;;;;;;17.37;8.33;;;;;;;-145.69;100.00;52610.75;5113514;28;20197;-83
2023/02/28 10:30:58;;;;;;;15.77;8.00;;;;;;;-145.69;100.00;52569.16;5097281;28;20251;-83
2023/02/28 10:33:26;;;;;;;13.90;7.60;;;;;;;-145.69;100.00;52575.09;5113770;28;20540;-80
2023/02/28 10:35:54;;;;;;;15.90;8.33;;;;;;;-145.69;100.00;52559.25;5113269;28;20197;-80
2023/02/28 10:38:23;;;;;;;18.00;8.67;;;;;;;-145.69;100.00;52561.22;5113222;28;20659;-79
2023/02/28 10:40:50;;;;;;;15.90;8.50;;;;;;;-145.69;100.00;52557.28;5113064;28;20235;-80
2023/02/28 10:43:22;;;;;;;14.57;7.70;;;;;;;-145.69;100.00;52571.13;5113503;28;20590;-81
2023/02/28 10:45:59;;;;;;;16.13;8.33;;;;;;;-145.69;100.00;52567.16;5112655;28;20559;-81
2023/02/28 10:48:31;;;;;;;16.87;8.13;;;;;;;-145.69;100.00;52585.00;5113366;28;20185;-79
2023/02/28 10:50:59;;;;;;;14.90;7.03;;;;;;;-145.69;100.00;52551.31;5113225;28;20225;-82
2023/02/28 10:53:34;;;;;;;20.73;7.93;;;;;;;-145.69;99.13;52594.91;5113555;28;20197;-80
2023/02/28 10:56:03;;;;;;;16.10;8.10;;;;;;;-145.69;100.00;52563.22;5114435;28;20540;-83
2023/02/28 10:58:31;;;;;;;12.83;7.50;;;;;;;-145.69;100.00;52557.28;5116539;28;20189;-86
2023/02/28 11:00:59;;;;;;;17.77;8.77;;;;;;;-145.69;100.00;52537.47;5100502;28;20201;-85
2023/02/28 11:03:31;;;;;;;14.27;7.67;;;;;;;-145.69;98.58;52585.00;5116434;28;20204;-85
2023/02/28 11:05:59;;;;;;;20.80;7.90;;;;;;;-145.69;95.85;52555.28;5117335;28;20551;-85
2023/02/28 11:08:25;;;;;;;16.80;7.70;;;;;;;-145.69;97.40;52563.22;5118881;28;20200;-86
2023/02/28 11:10:58;;;;;;;13.30;7.37;;;;;;;-145.69;98.21;52565.19;5115696;28;20248;-85
2023/02/28 11:13:35;;;;;;;16.73;8.23;;;;;;;-145.69;98.51;52567.16;5114454;28;20200;-85